Time;durP1;ratioP1;P1;durP2;ratioP2;P2;SDS_P1;SDS_P2;PMS_P1;PMS_P2;Temp;Humidity;BMP_temperature;BMP_pressure;BME280_temperature;BME280_humidity;BME280_pressure;Samples;Min_cycle;Max_cycle;Signal;HPM_P1;HPM_P2
2024/01/26 00:00:05;;;;;;;41.65;24.88;;;;;;;8.55;100.00;102135.31;5072513;28;20064;-49
2024/01/26 00:02:34;;;;;;;39.72;23.73;;;;;;;8.58;100.00;102132.56;5072761;28;20067;-49
2024/01/26 00:05:03;;;;;;;39.00;23.98;;;;;;;8.57;100.00;102136.09;5072844;28;20102;-50
2024/01/26 00:07:31;;;;;;;42.90;23.85;;;;;;;8.58;100.00;102132.56;5069525;28;20105;-50
2024/01/26 00:10:00;;;;;;;38.38;22.70;;;;;;;8.58;100.00;102132.56;5069474;28;20093;-46
2024/01/26 00:12:28;;;;;;;37.63;23.23;;;;;;;8.61;100.00;102129.84;5069429;28;20526;-48
2024/01/26 00:14:56;;;;;;;39.83;24.00;;;;;;;8.60;100.00;102129.88;5071128;28;20105;-46
2024/01/26 00:17:24;;;;;;;40.05;23.60;;;;;;;8.61;100.00;102131.59;5072515;28;20468;-47
2024/01/26 00:19:55;;;;;;;40.67;25.77;;;;;;;8.57;100.00;102125.59;5071717;28;20052;-48
2024/01/26 00:22:23;;;;;;;37.35;22.52;;;;;;;8.57;100.00;102127.38;5072189;28;20052;-47
2024/01/26 00:24:51;;;;;;;36.83;23.67;;;;;;;8.58;100.00;102121.25;5072338;28;20044;-46
2024/01/26 00:27:20;;;;;;;38.85;23.73;;;;;;;8.56;100.00;102118.69;5070683;28;20051;-48
2024/01/26 00:29:48;;;;;;;37.08;23.00;;;;;;;8.56;100.00;102121.31;5067039;28;20090;-47
2024/01/26 00:32:16;;;;;;;42.72;24.30;;;;;;;8.59;100.00;102117.72;5072035;28;20102;-47
2024/01/26 00:34:44;;;;;;;37.45;23.00;;;;;;;8.59;100.00;102121.19;5072424;28;20041;-46
2024/01/26 00:37:14;;;;;;;36.63;23.60;;;;;;;8.59;100.00;102112.47;5072450;28;20076;-45
2024/01/26 00:39:42;;;;;;;38.08;22.85;;;;;;;8.57;100.00;102107.25;5072458;28;20050;-46
2024/01/26 00:42:11;;;;;;;39.67;24.73;;;;;;;8.58;100.00;102105.50;5070805;28;20048;-45
2024/01/26 00:44:39;;;;;;;40.92;24.05;;;;;;;8.58;100.00;102106.34;5072542;28;20040;-47
2024/01/26 00:47:07;;;;;;;39.08;24.20;;;;;;;8.59;100.00;102102.81;5072174;28;20094;-57
2024/01/26 00:49:35;;;;;;;43.53;24.60;;;;;;;8.58;100.00;102103.72;5072360;28;20048;-56
2024/01/26 00:52:17;;;;;;;39.97;25.20;;;;;;;8.57;100.00;102096.75;5073612;28;20094;-57
2024/01/26 00:54:45;;;;;;;41.17;24.08;;;;;;;8.56;100.00;102097.69;5073524;28;20483;-56
2024/01/26 00:57:16;;;;;;;43.45;25.90;;;;;;;8.60;100.00;102095.81;5073252;28;20063;-57
2024/01/26 00:59:45;;;;;;;41.30;25.30;;;;;;;8.58;100.00;102090.63;5071248;28;20037;-57
2024/01/26 01:02:13;;;;;;;44.88;25.73;;;;;;;8.60;100.00;102093.19;5072937;28;20449;-57
2024/01/26 01:04:42;;;;;;;42.20;25.38;;;;;;;8.60;100.00;102091.44;5073168;28;20419;-57
2024/01/26 01:07:10;;;;;;;42.47;25.60;;;;;;;8.57;100.00;102083.66;5072974;28;20443;-59
2024/01/26 01:09:41;;;;;;;43.00;25.63;;;;;;;8.61;100.00;102098.34;5075653;28;20139;-46
2024/01/26 01:12:09;;;;;;;47.55;27.33;;;;;;;8.59;100.00;102097.56;5075757;28;20055;-45
2024/01/26 01:14:38;;;;;;;43.83;25.70;;;;;;;8.57;100.00;102096.75;5075878;28;20077;-46
2024/01/26 01:17:06;;;;;;;39.75;24.73;;;;;;;8.59;100.00;102099.34;5075705;28;20055;-47
2024/01/26 01:19:34;;;;;;;43.20;24.88;;;;;;;8.59;100.00;102099.34;5075324;28;20051;-48
2024/01/26 01:22:03;;;;;;;39.15;24.77;;;;;;;8.60;100.00;102098.41;5075001;28;20532;-48
2024/01/26 01:24:31;;;;;;;39.53;24.02;;;;;;;8.61;100.00;102100.16;5075092;28;20396;-47
2024/01/26 01:27:00;;;;;;;43.60;25.58;;;;;;;8.59;100.00;102096.75;5075414;28;20514;-50
2024/01/26 01:29:29;;;;;;;40.78;24.45;;;;;;;8.59;100.00;102089.72;5075370;28;20048;-50
2024/01/26 01:31:57;;;;;;;39.67;24.70;;;;;;;8.60;100.00;102083.56;5073458;28;20048;-49
2024/01/26 01:34:25;;;;;;;39.58;24.45;;;;;;;8.60;100.00;102085.31;5071775;28;20052;-48
2024/01/26 01:36:53;;;;;;;41.55;24.88;;;;;;;8.60;100.00;102086.19;5074652;28;20041;-49
2024/01/26 01:39:21;;;;;;;44.22;24.67;;;;;;;8.59;100.00;102086.25;5075342;28;20127;-50
2024/01/26 01:41:52;;;;;;;38.40;23.50;;;;;;;8.59;100.00;102073.97;5075460;28;20124;-50
2024/01/26 01:44:22;;;;;;;35.47;22.95;;;;;;;8.61;100.00;102076.53;5075345;28;20056;-48
2024/01/26 01:46:50;;;;;;;37.40;22.67;;;;;;;8.62;100.00;102079.09;5075565;28;20055;-51
2024/01/26 01:49:19;;;;;;;35.38;22.48;;;;;;;8.59;100.00;102073.97;5072354;28;20052;-49
2024/01/26 01:51:53;;;;;;;34.40;22.80;;;;;;;8.58;100.00;102061.78;5072265;28;20045;-53
2024/01/26 01:54:22;;;;;;;40.00;23.38;;;;;;;8.58;100.00;102060.94;5073849;28;20080;-49
2024/01/26 01:56:53;;;;;;;34.05;22.48;;;;;;;8.59;100.00;102058.25;5075068;28;20048;-47
2024/01/26 01:59:23;;;;;;;37.30;23.25;;;;;;;8.57;100.00;102060.06;5075063;28;20500;-46
2024/01/26 02:01:51;;;;;;;38.22;23.50;;;;;;;8.57;100.00;102049.56;5075009;28;20028;-48
2024/01/26 02:04:19;;;;;;;32.83;21.33;;;;;;;8.59;100.00;102041.66;5074979;28;20052;-49
2024/01/26 02:06:54;;;;;;;35.13;21.63;;;;;;;8.59;100.00;102042.50;5074175;28;20416;-50
2024/01/26 02:09:23;;;;;;;33.45;21.33;;;;;;;8.59;100.00;102041.66;5071543;28;20049;-46
2024/01/26 02:11:51;;;;;;;33.33;21.58;;;;;;;8.58;100.00;102038.16;5071853;28;20028;-46
2024/01/26 02:14:19;;;;;;;33.05;21.35;;;;;;;8.60;100.00;102036.34;5070768;28;20561;-49
2024/01/26 02:16:56;;;;;;;31.00;20.90;;;;;;;8.63;100.00;102036.22;5074536;28;20123;-48
2024/01/26 02:19:25;;;;;;;31.27;20.30;;;;;;;8.61;100.00;102032.81;5071426;28;20102;-47
2024/01/26 02:21:54;;;;;;;30.30;19.80;;;;;;;8.63;100.00;102031.00;5072813;28;20042;-47
2024/01/26 02:24:24;;;;;;;30.15;19.52;;;;;;;8.63;100.00;102017.88;5072013;28;20530;-46
2024/01/26 02:26:53;;;;;;;28.70;19.95;;;;;;;8.65;100.00;102017.81;5070248;28;20052;-50
2024/01/26 02:29:21;;;;;;;32.97;20.92;;;;;;;8.65;100.00;102011.72;5074206;28;20490;-47
2024/01/26 02:31:49;;;;;;;30.13;19.25;;;;;;;8.65;100.00;102004.69;5074528;28;20037;-47
2024/01/26 02:34:17;;;;;;;29.17;19.40;;;;;;;8.64;100.00;101992.50;5074286;28;20040;-47
2024/01/26 02:36:46;;;;;;;29.42;18.40;;;;;;;8.65;100.00;101993.38;5074138;28;20056;-48
2024/01/26 02:39:14;;;;;;;27.90;18.65;;;;;;;8.66;100.00;101992.44;5073767;28;20072;-47
2024/01/26 02:41:43;;;;;;;27.77;18.25;;;;;;;8.66;100.00;101981.94;5073792;28;20044;-48
2024/01/26 02:44:12;;;;;;;26.10;17.48;;;;;;;8.62;100.00;101979.44;5073876;28;20088;-47
2024/01/26 02:46:41;;;;;;;29.77;16.30;;;;;;;8.67;100.00;101973.16;5074047;28;20123;-46
2024/01/26 02:49:09;;;;;;;26.20;17.58;;;;;;;8.66;100.00;101966.22;5073838;28;20044;-46
2024/01/26 02:51:38;;;;;;;24.88;16.77;;;;;;;8.65;100.00;101967.16;5072486;28;20049;-48
2024/01/26 02:54:06;;;;;;;24.05;16.75;;;;;;;8.68;100.00;101969.63;5074168;28;20040;-46
2024/01/26 02:56:36;;;;;;;24.40;16.67;;;;;;;8.68;100.00;101973.09;5073445;28;20048;-46
2024/01/26 02:59:06;;;;;;;26.13;16.42;;;;;;;8.66;100.00;101971.44;5069243;28;20114;-46
2024/01/26 03:01:34;;;;;;;22.35;15.48;;;;;;;8.67;100.00;101966.16;5071738;28;20368;-48
2024/01/26 03:04:02;;;;;;;23.60;15.82;;;;;;;8.67;100.00;101954.81;5072275;28;20048;-47
2024/01/26 03:06:30;;;;;;;22.40;14.48;;;;;;;8.69;100.00;101955.63;5073644;28;20563;-47
2024/01/26 03:08:58;;;;;;;21.38;13.82;;;;;;;8.69;100.00;101955.63;5073544;28;20059;-48
2024/01/26 03:11:37;;;;;;;21.50;13.30;;;;;;;8.70;100.00;101958.19;5073659;28;20036;-47
2024/01/26 03:14:08;;;;;;;21.67;12.50;;;;;;;8.68;100.00;101943.41;5072491;28;20068;-47
2024/01/26 03:16:39;;;;;;;20.45;12.18;;;;;;;8.72;100.00;101937.13;5072920;28;20058;-50
2024/01/26 03:19:08;;;;;;;21.05;12.48;;;;;;;8.71;100.00;101932.78;5073006;28;20127;-47
2024/01/26 03:21:43;;;;;;;19.08;11.63;;;;;;;8.72;100.00;101926.63;5073165;28;20113;-48
2024/01/26 03:24:12;;;;;;;17.83;12.23;;;;;;;8.75;100.00;101930.00;5073187;28;20048;-51
2024/01/26 03:26:41;;;;;;;17.38;11.07;;;;;;;8.74;100.00;101919.53;5073303;28;20051;-48
2024/01/26 03:29:10;;;;;;;16.25;10.05;;;;;;;8.74;100.00;101904.69;5067784;28;20142;-50
2024/01/26 03:31:39;;;;;;;17.38;11.00;;;;;;;8.75;100.00;101902.91;5069927;28;20043;-52
2024/01/26 03:34:07;;;;;;;19.33;10.77;;;;;;;8.77;100.00;101891.44;5073098;28;20052;-50
2024/01/26 03:36:35;;;;;;;14.60;9.77;;;;;;;8.76;100.00;101881.84;5073160;28;20061;-48
2024/01/26 03:39:04;;;;;;;16.10;10.32;;;;;;;8.79;100.00;101894.00;5071787;28;20101;-46
2024/01/26 03:41:32;;;;;;;14.77;10.05;;;;;;;8.80;100.00;101891.31;5071735;28;20044;-48
2024/01/26 03:44:00;;;;;;;18.20;10.00;;;;;;;8.81;100.00;101884.31;5072995;28;20066;-52
2024/01/26 03:46:30;;;;;;;14.80;9.10;;;;;;;8.80;100.00;101888.69;5069551;28;20127;-48
2024/01/26 03:48:58;;;;;;;14.45;9.40;;;;;;;8.84;100.00;101871.06;5069835;28;20411;-50
2024/01/26 03:51:27;;;;;;;15.98;9.55;;;;;;;8.84;100.00;101865.81;5072801;28;20040;-48
2024/01/26 03:53:59;;;;;;;15.77;9.18;;;;;;;8.87;100.00;101876.16;5072873;28;20072;-47
2024/01/26 03:56:27;;;;;;;13.45;8.20;;;;;;;8.89;100.00;101869.09;5072588;28;20495;-46
2024/01/26 03:58:55;;;;;;;13.80;8.77;;;;;;;8.89;100.00;101862.97;5072718;28;20037;-49
2024/01/26 04:01:24;;;;;;;11.95;8.15;;;;;;;8.91;100.00;101867.25;5072633;28;20051;-48
2024/01/26 04:03:53;;;;;;;11.52;7.43;;;;;;;8.94;100.00;101861.03;5072788;28;20049;-46
2024/01/26 04:06:21;;;;;;;14.23;7.88;;;;;;;8.96;100.00;101857.41;5072796;28;20553;-47
2024/01/26 04:08:51;;;;;;;11.98;7.57;;;;;;;8.96;100.00;101857.41;5072395;28;20127;-50
2024/01/26 04:11:19;;;;;;;13.50;7.40;;;;;;;8.99;100.00;101852.97;5072653;28;20131;-48
2024/01/26 04:13:47;;;;;;;11.57;7.18;;;;;;;9.00;100.00;101850.28;5072441;28;20083;-46
2024/01/26 04:16:15;;;;;;;13.20;6.93;;;;;;;8.98;100.00;101846.00;5071679;28;20047;-46
2024/01/26 04:18:44;;;;;;;12.38;7.53;;;;;;;8.98;100.00;101849.47;5069446;28;20082;-48
2024/01/26 04:21:17;;;;;;;10.13;6.97;;;;;;;8.99;100.00;101847.72;5069498;28;20102;-46
2024/01/26 04:23:47;;;;;;;13.43;6.70;;;;;;;9.00;100.00;101831.91;5072473;28;20067;-47
2024/01/26 04:26:16;;;;;;;9.95;6.45;;;;;;;9.01;100.00;101830.97;5071563;28;20048;-48
2024/01/26 04:28:45;;;;;;;10.68;6.50;;;;;;;8.99;100.00;101827.56;5072241;28;20059;-47
2024/01/26 04:31:13;;;;;;;11.82;6.80;;;;;;;9.02;100.00;101834.47;5071178;28;20151;-47
2024/01/26 04:33:41;;;;;;;11.57;6.68;;;;;;;9.01;100.00;101823.09;5072556;28;20037;-50
2024/01/26 04:36:10;;;;;;;11.55;6.60;;;;;;;9.03;100.00;101815.19;5072296;28;20050;-46
2024/01/26 04:38:39;;;;;;;10.75;6.32;;;;;;;9.02;100.00;101824.81;5069091;28;20060;-47
2024/01/26 04:41:07;;;;;;;10.02;6.55;;;;;;;9.02;100.00;101816.94;5069391;28;20070;-48
2024/01/26 04:43:35;;;;;;;11.13;6.90;;;;;;;9.06;100.00;101818.50;5071100;28;20049;-47
2024/01/26 04:46:04;;;;;;;11.15;6.70;;;;;;;9.06;100.00;101801.94;5072432;28;20044;-46
2024/01/26 04:48:33;;;;;;;14.10;6.80;;;;;;;9.08;100.00;101781.72;5072629;28;20053;-47
2024/01/26 04:51:01;;;;;;;11.65;6.22;;;;;;;9.06;100.00;101775.69;5072488;28;20127;-50
2024/01/26 04:53:29;;;;;;;10.75;6.38;;;;;;;9.05;100.00;101782.72;5072173;28;20045;-46
2024/01/26 04:55:59;;;;;;;11.45;6.80;;;;;;;9.05;100.00;101777.47;5072183;28;20049;-45
2024/01/26 04:58:27;;;;;;;12.82;6.38;;;;;;;9.09;100.00;101772.91;5072286;28;20098;-47
2024/01/26 05:00:55;;;;;;;11.02;7.00;;;;;;;9.10;100.00;101779.88;5071799;28;20554;-47
2024/01/26 05:03:23;;;;;;;11.85;7.13;;;;;;;9.07;100.00;101777.41;5071267;28;20058;-48
2024/01/26 05:05:52;;;;;;;13.27;6.90;;;;;;;9.09;100.00;101775.53;5071433;28;20063;-50
2024/01/26 05:08:20;;;;;;;11.48;6.40;;;;;;;9.10;100.00;101777.25;5071593;28;20068;-49
2024/01/26 05:10:48;;;;;;;16.05;6.47;;;;;;;9.12;100.00;101781.53;5072022;28;20449;-50
2024/01/26 05:13:18;;;;;;;10.43;6.30;;;;;;;9.13;100.00;101785.84;5071963;28;20472;-48
2024/01/26 05:15:46;;;;;;;13.13;6.93;;;;;;;9.16;100.00;101791.88;5071952;28;20051;-48
2024/01/26 05:18:14;;;;;;;11.02;6.60;;;;;;;9.18;100.00;101790.06;5071893;28;20040;-52
2024/01/26 05:20:43;;;;;;;12.27;6.25;;;;;;;9.19;100.00;101787.34;5071499;28;20060;-51
2024/01/26 05:23:11;;;;;;;11.88;7.55;;;;;;;9.19;100.00;101782.09;5071477;28;20051;-47
2024/01/26 05:25:41;;;;;;;11.90;7.07;;;;;;;9.18;100.00;101783.03;5071998;28;20041;-47
2024/01/26 05:28:10;;;;;;;13.27;7.75;;;;;;;9.21;100.00;101772.38;5072060;28;20044;-47
2024/01/26 05:30:39;;;;;;;13.88;7.93;;;;;;;9.24;100.00;101767.00;5071863;28;20048;-49
2024/01/26 05:33:07;;;;;;;14.20;7.97;;;;;;;9.25;100.00;101766.06;5071056;28;20052;-46
2024/01/26 05:35:35;;;;;;;12.45;8.15;;;;;;;9.24;100.00;101748.63;5068861;28;20569;-47
2024/01/26 05:38:07;;;;;;;12.98;8.68;;;;;;;9.24;100.00;101732.00;5072387;28;20051;-50
2024/01/26 05:40:35;;;;;;;13.85;8.90;;;;;;;9.27;100.00;101732.75;5075322;28;20496;-47
2024/01/26 05:43:03;;;;;;;14.82;8.18;;;;;;;9.30;100.00;101719.47;5075678;28;20393;-47
2024/01/26 05:45:31;;;;;;;13.95;9.18;;;;;;;9.28;100.00;101708.19;5075559;28;20075;-47
2024/01/26 05:48:04;;;;;;;16.20;9.98;;;;;;;9.30;100.00;101708.97;5075542;28;20040;-47
2024/01/26 05:50:32;;;;;;;14.40;10.57;;;;;;;9.31;100.00;101707.19;5075448;28;20530;-47
2024/01/26 05:53:00;;;;;;;14.27;9.70;;;;;;;9.29;100.00;101691.50;5073970;28;20449;-47
2024/01/26 05:55:28;;;;;;;14.65;10.25;;;;;;;9.28;100.00;101694.22;5075418;28;20376;-47
2024/01/26 05:57:57;;;;;;;16.15;11.27;;;;;;;9.30;100.00;101682.72;5075132;28;20136;-47
2024/01/26 06:00:25;;;;;;;16.25;10.73;;;;;;;9.29;100.00;101683.63;5073611;28;20102;-48
2024/01/26 06:02:53;;;;;;;15.93;10.82;;;;;;;9.27;100.00;101685.50;5074707;28;20056;-49
2024/01/26 06:05:23;;;;;;;16.70;11.30;;;;;;;9.29;100.00;101683.63;5072258;28;20131;-49
2024/01/26 06:07:51;;;;;;;18.55;11.13;;;;;;;9.28;100.00;101681.09;5071606;28;20108;-48
2024/01/26 06:10:19;;;;;;;17.52;11.23;;;;;;;9.30;100.00;101679.25;5074330;28;20400;-48
2024/01/26 06:12:47;;;;;;;15.65;10.68;;;;;;;9.28;100.00;101681.09;5074713;28;20052;-47
2024/01/26 06:15:15;;;;;;;14.95;11.18;;;;;;;9.27;100.00;101672.38;5074564;28;20068;-47
2024/01/26 06:17:44;;;;;;;16.27;10.50;;;;;;;9.26;100.00;101673.28;5074503;28;20468;-47
2024/01/26 06:20:13;;;;;;;14.82;11.52;;;;;;;9.24;100.00;101667.28;5071961;28;20056;-47
2024/01/26 06:22:43;;;;;;;16.45;11.30;;;;;;;9.23;100.00;101669.94;5071479;28;20155;-48
2024/01/26 06:25:11;;;;;;;16.17;11.18;;;;;;;9.20;100.00;101676.19;5073669;28;20048;-46
2024/01/26 06:27:39;;;;;;;15.25;11.32;;;;;;;9.20;100.00;101668.31;5071561;28;20155;-46
2024/01/26 06:30:08;;;;;;;17.92;11.32;;;;;;;9.18;100.00;101670.16;5071589;28;20054;-50
2024/01/26 06:32:37;;;;;;;17.02;11.82;;;;;;;9.14;100.00;101668.59;5073191;28;20491;-46
2024/01/26 06:35:06;;;;;;;16.17;11.30;;;;;;;9.12;100.00;101658.19;5074495;28;20411;-47
2024/01/26 06:37:34;;;;;;;15.18;11.40;;;;;;;9.10;100.00;101648.66;5074539;28;20044;-48
2024/01/26 06:40:05;;;;;;;16.85;11.45;;;;;;;9.10;100.00;101648.66;5074248;28;20050;-46
2024/01/26 06:42:33;;;;;;;15.18;11.05;;;;;;;9.07;100.00;101644.41;5074433;28;20040;-48
2024/01/26 06:45:01;;;;;;;17.17;11.30;;;;;;;9.07;100.00;101635.69;5074177;28;20044;-46
2024/01/26 06:47:29;;;;;;;16.50;11.05;;;;;;;9.04;100.00;101639.31;5073825;28;20477;-47
2024/01/26 06:49:57;;;;;;;16.88;11.45;;;;;;;9.06;100.00;101641.88;5072924;28;20058;-51
2024/01/26 06:52:25;;;;;;;15.05;10.45;;;;;;;9.05;100.00;101640.16;5073539;28;20496;-51
2024/01/26 06:54:54;;;;;;;15.25;10.52;;;;;;;9.03;100.00;101644.63;5073566;28;20044;-48
2024/01/26 06:57:23;;;;;;;15.65;10.95;;;;;;;9.02;100.00;101635.88;5071593;28;20500;-51
2024/01/26 06:59:51;;;;;;;16.00;10.95;;;;;;;9.02;100.00;101632.44;5069029;28;20470;-51
2024/01/26 07:02:19;;;;;;;15.90;11.38;;;;;;;9.01;100.00;101621.06;5073528;28;20488;-52
2024/01/26 07:04:48;;;;;;;16.90;11.05;;;;;;;8.99;100.00;101628.16;5072910;28;20044;-49
2024/01/26 07:07:16;;;;;;;14.95;10.65;;;;;;;9.00;100.00;101635.13;5071087;28;20040;-51
2024/01/26 07:09:44;;;;;;;16.02;11.10;;;;;;;9.02;100.00;101619.31;5072026;28;20449;-51
2024/01/26 07:12:12;;;;;;;14.15;10.35;;;;;;;9.02;100.00;101611.44;5072935;28;20371;-49
2024/01/26 07:14:42;;;;;;;15.63;10.23;;;;;;;9.02;100.00;101611.44;5073038;28;20406;-48
2024/01/26 07:17:10;;;;;;;15.05;10.00;;;;;;;9.05;100.00;101622.66;5072849;28;20048;-47
2024/01/26 07:19:38;;;;;;;14.68;9.95;;;;;;;9.02;100.00;101607.03;5072975;28;20056;-46
2024/01/26 07:22:07;;;;;;;12.88;9.40;;;;;;;9.06;100.00;101600.72;5072952;28;20047;-46
2024/01/26 07:24:35;;;;;;;13.23;8.82;;;;;;;9.09;100.00;101597.09;5073114;28;20044;-48
2024/01/26 07:27:04;;;;;;;14.45;10.10;;;;;;;9.06;100.00;101595.47;5073136;28;20364;-47
2024/01/26 07:29:33;;;;;;;12.85;9.02;;;;;;;9.08;100.00;101582.28;5073300;28;20052;-47
2024/01/26 07:32:02;;;;;;;13.15;8.45;;;;;;;9.10;100.00;101569.94;5073173;28;20118;-47
2024/01/26 07:34:30;;;;;;;12.85;8.38;;;;;;;9.12;100.00;101584.69;5072833;28;20072;-47
2024/01/26 07:36:59;;;;;;;12.48;7.93;;;;;;;9.13;100.00;101606.53;5073106;28;20044;-46
2024/01/26 07:39:27;;;;;;;11.35;8.00;;;;;;;9.14;100.00;101605.63;5072797;28;20044;-46
2024/01/26 07:41:56;;;;;;;13.40;8.25;;;;;;;9.16;100.00;101590.63;5073203;28;20135;-49
2024/01/26 07:44:24;;;;;;;12.48;8.25;;;;;;;9.20;100.00;101600.06;5072817;28;20133;-47
2024/01/26 07:46:52;;;;;;;12.00;8.27;;;;;;;9.19;100.00;101595.75;5073023;28;20037;-49
2024/01/26 07:49:22;;;;;;;12.98;8.15;;;;;;;9.21;100.00;101596.53;5072991;28;20060;-47
2024/01/26 07:51:50;;;;;;;12.05;7.88;;;;;;;9.23;100.00;101606.94;5073137;28;20041;-46
2024/01/26 07:54:18;;;;;;;12.48;7.63;;;;;;;9.24;100.00;101612.16;5072515;28;20047;-48
2024/01/26 07:56:46;;;;;;;11.80;8.02;;;;;;;9.26;100.00;101605.03;5073008;28;20392;-48
2024/01/26 07:59:14;;;;;;;14.05;8.80;;;;;;;9.29;100.00;101610.13;5072711;28;20052;-46
2024/01/26 08:01:43;;;;;;;11.85;8.30;;;;;;;9.30;100.00;101616.25;5072853;28;20454;-46
2024/01/26 08:04:11;;;;;;;11.70;7.88;;;;;;;9.32;100.00;101614.38;5072653;28;20064;-48
2024/01/26 08:06:41;;;;;;;13.50;9.20;;;;;;;9.33;100.00;101615.25;5070138;28;20047;-47
2024/01/26 08:09:10;;;;;;;12.98;9.18;;;;;;;9.38;100.00;101616.72;5069863;28;20107;-47
2024/01/26 08:11:39;;;;;;;12.45;8.90;;;;;;;9.38;100.00;101622.00;5071473;28;20080;-48
2024/01/26 08:14:07;;;;;;;13.88;8.98;;;;;;;9.42;100.00;101620.03;5071413;28;20049;-47
2024/01/26 08:16:37;;;;;;;14.95;9.35;;;;;;;9.42;100.00;101614.78;5072699;28;20052;-48
2024/01/26 08:19:06;;;;;;;15.10;9.43;;;;;;;9.40;100.00;101617.50;5072678;28;20071;-48
2024/01/26 08:21:35;;;;;;;13.70;9.80;;;;;;;9.42;100.00;101626.16;5071834;28;20060;-48
2024/01/26 08:24:06;;;;;;;13.80;9.57;;;;;;;9.41;100.00;101621.84;5071992;28;20919;-47
2024/01/26 08:26:34;;;;;;;14.60;10.32;;;;;;;9.43;100.00;101612.09;5072018;28;20056;-47
2024/01/26 08:29:03;;;;;;;16.73;10.57;;;;;;;9.46;100.00;101611.09;5072150;28;20051;-47
2024/01/26 08:31:31;;;;;;;15.85;10.73;;;;;;;9.49;100.00;101608.34;5072023;28;20127;-46
2024/01/26 08:33:59;;;;;;;18.15;10.63;;;;;;;9.53;100.00;101607.28;5072272;28;20050;-46
2024/01/26 08:36:28;;;;;;;16.83;10.80;;;;;;;9.56;100.00;101611.53;5072182;28;20127;-47
2024/01/26 08:38:56;;;;;;;15.20;10.90;;;;;;;9.57;100.00;101610.56;5071332;28;20044;-48
2024/01/26 08:41:26;;;;;;;18.30;11.50;;;;;;;9.59;100.00;101606.13;5070726;28;20214;-51
2024/01/26 08:43:54;;;;;;;16.60;11.60;;;;;;;9.62;100.00;101606.78;5067954;28;20040;-49
2024/01/26 08:46:23;;;;;;;15.73;11.30;;;;;;;9.67;100.00;101603.09;5070549;28;20384;-47
2024/01/26 08:48:51;;;;;;;19.00;12.27;;;;;;;9.68;100.00;101595.16;5071656;28;20052;-49
2024/01/26 08:51:19;;;;;;;16.83;11.75;;;;;;;9.69;100.00;101593.38;5070750;28;20139;-46
2024/01/26 08:53:47;;;;;;;17.85;12.65;;;;;;;9.73;100.00;101602.81;5072234;28;20559;-46
2024/01/26 08:56:16;;;;;;;17.40;11.55;;;;;;;9.73;100.00;101603.66;5072241;28;20037;-47
2024/01/26 08:58:45;;;;;;;18.60;11.73;;;;;;;9.76;100.00;101595.63;5071115;28;20049;-44
2024/01/26 09:01:13;;;;;;;15.75;11.60;;;;;;;9.79;100.00;101602.50;5072105;28;20488;-45
2024/01/26 09:03:42;;;;;;;16.58;10.80;;;;;;;9.79;100.00;101599.88;5069455;28;20389;-46
2024/01/26 09:06:10;;;;;;;15.55;11.07;;;;;;;9.81;100.00;101603.28;5068571;28;20132;-45
2024/01/26 09:08:38;;;;;;;14.82;10.85;;;;;;;9.84;100.00;101615.41;5069473;28;20049;-46
2024/01/26 09:11:05;;;;;;;15.32;10.85;;;;;;;9.82;100.00;101603.19;5068537;28;20113;-47
2024/01/26 09:13:33;;;;;;;16.15;9.93;;;;;;;9.82;100.00;101621.59;5074426;28;20049;-46
2024/01/26 09:16:03;;;;;;;15.63;10.05;;;;;;;9.87;100.00;101618.75;5074526;28;20396;-46
2024/01/26 09:18:31;;;;;;;14.68;9.85;;;;;;;9.88;100.00;101624.84;5075998;28;20052;-47
2024/01/26 09:21:11;;;;;;;13.57;9.25;;;;;;;9.88;100.00;101633.56;5075506;28;20048;-47
2024/01/26 09:23:40;;;;;;;12.95;8.25;;;;;;;9.88;100.00;101640.59;5075829;28;20052;-48
2024/01/26 09:26:08;;;;;;;12.48;7.25;;;;;;;9.87;100.00;101647.66;5075519;28;20044;-47
2024/01/26 09:28:36;;;;;;;10.95;6.40;;;;;;;9.85;100.00;101652.09;5075560;28;20036;-46
2024/01/26 09:31:06;;;;;;;11.70;6.07;;;;;;;9.81;100.00;101648.78;5074509;28;20048;-47
2024/01/26 09:33:34;;;;;;;11.20;5.32;;;;;;;9.81;100.00;101661.91;5074343;28;20052;-48
2024/01/26 09:36:05;;;;;;;10.90;5.25;;;;;;;9.81;100.00;101668.94;5074779;28;20040;-49
2024/01/26 09:38:33;;;;;;;10.38;4.38;;;;;;;9.80;100.00;101694.38;5075054;28;20051;-50
2024/01/26 09:41:02;;;;;;;10.05;3.60;;;;;;;9.79;100.00;101712.84;5075265;28;20533;-51
2024/01/26 09:43:30;;;;;;;8.55;2.85;;;;;;;9.71;100.00;101709.75;5075046;28;20040;-49
2024/01/26 09:45:58;;;;;;;4.97;1.42;;;;;;;9.68;100.00;101736.13;5075172;28;20048;-51
2024/01/26 09:48:28;;;;;;;5.75;1.70;;;;;;;9.62;100.00;101732.88;5075209;28;20094;-48
2024/01/26 09:50:57;;;;;;;7.05;1.50;;;;;;;9.55;100.00;101751.63;5075380;28;20120;-48
2024/01/26 09:53:26;;;;;;;6.97;1.63;;;;;;;9.53;100.00;101756.94;5074780;28;20033;-48
2024/01/26 09:55:55;;;;;;;6.57;1.50;;;;;;;9.51;100.00;101782.41;5074026;28;20041;-47
2024/01/26 09:58:23;;;;;;;8.35;1.73;;;;;;;9.41;100.00;101795.13;5073441;28;20109;-46
2024/01/26 10:00:56;;;;;;;7.35;2.20;;;;;;;9.14;100.00;101832.16;5075106;28;20052;-51
2024/01/26 10:03:24;;;;;;;8.20;2.30;;;;;;;8.73;100.00;101840.03;5074846;28;20467;-47
2024/01/26 10:05:54;;;;;;;5.60;1.15;;;;;;;8.48;100.00;101852.44;5074914;28;20139;-51
2024/01/26 10:08:23;;;;;;;5.10;1.20;;;;;;;8.38;100.00;101857.16;5074924;28;20479;-48
2024/01/26 10:10:51;;;;;;;8.88;2.03;;;;;;;8.28;100.00;101868.00;5074873;28;20044;-50
2024/01/26 10:13:19;;;;;;;8.57;2.17;;;;;;;8.26;100.00;101869.84;5073924;28;20119;-48
2024/01/26 10:15:50;;;;;;;6.03;1.38;;;;;;;8.10;100.00;101892.31;5074880;28;20044;-47
2024/01/26 10:18:19;;;;;;;7.97;1.98;;;;;;;8.05;100.00;101904.72;5072165;28;20059;-50
2024/01/26 10:20:47;;;;;;;5.05;1.15;;;;;;;8.03;100.00;101906.53;5069770;28;20091;-49
2024/01/26 10:23:17;;;;;;;7.32;1.10;;;;;;;7.95;100.00;101931.25;5071145;28;20369;-48
2024/01/26 10:25:46;;;;;;;4.63;1.10;;;;;;;8.02;100.00;101944.16;5072130;28;20049;-48
2024/01/26 10:28:14;;;;;;;6.38;1.20;;;;;;;7.95;100.00;101940.91;5074831;28;20127;-51
2024/01/26 10:30:45;;;;;;;4.88;1.00;;;;;;;7.92;100.00;101947.09;5074404;28;20526;-50
2024/01/26 10:33:14;;;;;;;7.32;1.30;;;;;;;7.92;100.00;101957.56;5074840;28;20049;-50
2024/01/26 10:35:46;;;;;;;7.95;1.42;;;;;;;7.91;100.00;101962.88;5074545;28;20060;-51
2024/01/26 10:38:17;;;;;;;10.32;1.20;;;;;;;7.89;100.00;101965.53;5072084;28;20055;-46
2024/01/26 10:40:45;;;;;;;8.80;1.40;;;;;;;7.99;100.00;101963.44;5069747;28;20052;-46
2024/01/26 10:43:16;;;;;;;8.57;1.10;;;;;;;8.02;100.00;101970.34;5069987;28;20519;-47
2024/01/26 10:45:44;;;;;;;6.85;1.35;;;;;;;8.08;100.00;101970.09;5073582;28;20055;-46
2024/01/26 10:48:13;;;;;;;6.57;1.30;;;;;;;8.18;100.00;101987.22;5074030;28;20508;-46
2024/01/26 10:50:42;;;;;;;16.13;4.30;;;;;;;8.17;100.00;101988.13;5073866;28;20679;-46
2024/01/26 10:53:12;;;;;;;66.65;33.45;;;;;;;8.23;100.00;101984.41;5073540;28;20102;-46
2024/01/26 10:55:43;;;;;;;91.50;49.33;;;;;;;8.27;100.00;101997.31;5071052;28;20039;-46
2024/01/26 10:58:11;;;;;;;162.52;87.97;;;;;;;8.29;100.00;102002.53;5070880;28;20083;-45
2024/01/26 11:00:40;;;;;;;109.10;58.97;;;;;;;8.36;100.00;102003.16;5073672;28;20052;-45
2024/01/26 11:03:10;;;;;;;71.30;42.55;;;;;;;8.37;100.00;102010.97;5073711;28;20068;-45
2024/01/26 11:05:39;;;;;;;79.78;45.30;;;;;;;8.39;100.00;102013.53;5073611;28;20062;-46
2024/01/26 11:08:18;;;;;;;46.28;26.33;;;;;;;8.36;100.00;102029.38;5073090;28;20040;-46
2024/01/26 11:10:50;;;;;;;19.13;7.03;;;;;;;8.21;100.00;102039.50;5074020;28;20506;-47
2024/01/26 11:13:18;;;;;;;24.50;10.13;;;;;;;8.21;100.00;102047.38;5070771;28;20430;-46
2024/01/26 11:15:47;;;;;;;37.60;19.50;;;;;;;8.28;100.00;102051.47;5068782;28;20036;-47
2024/01/26 11:18:26;;;;;;;26.50;11.27;;;;;;;8.33;100.00;102050.44;5070294;28;20044;-46
2024/01/26 11:20:55;;;;;;;15.60;4.60;;;;;;;8.36;100.00;102066.94;5069072;28;20495;-49